Time;durP1;ratioP1;P1;durP2;ratioP2;P2;SDS_P1;SDS_P2;PMS_P1;PMS_P2;Temp;Humidity;BMP_temperature;BMP_pressure;BME280_temperature;BME280_humidity;BME280_pressure;Samples;Min_cycle;Max_cycle;Signal;HPM_P1;HPM_P2
2022/05/14 00:01:58;;;;;;;14.07;2.88;;;;;;;20.59;44.71;102118.28;5032306;28;20044;-77
2022/05/14 00:04:24;;;;;;;5.68;2.17;;;;;;;21.66;42.34;102102.31;5036103;28;20033;-77
2022/05/14 00:06:49;;;;;;;7.78;2.58;;;;;;;22.21;40.73;102099.34;5031561;28;20039;-76
2022/05/14 00:09:15;;;;;;;8.10;2.80;;;;;;;21.68;42.29;102103.97;5030869;28;20033;-76
2022/05/14 00:14:24;;;;;;;10.50;2.78;;;;;;;21.66;42.45;102094.31;5033185;28;20124;-76
2022/05/14 00:16:50;;;;;;;13.45;3.67;;;;;;;21.66;42.49;102096.97;5031896;28;20123;-78
2022/05/14 00:19:16;;;;;;;21.05;3.20;;;;;;;21.76;42.66;102097.50;5030475;28;20098;-76
2022/05/14 00:21:42;;;;;;;21.48;3.50;;;;;;;20.77;44.94;102096.47;5030093;28;20045;-76
2022/05/14 00:24:08;;;;;;;17.00;3.28;;;;;;;21.70;43.25;102093.28;5032446;28;20037;-77
2022/05/14 00:26:35;;;;;;;17.25;2.85;;;;;;;21.76;42.68;102087.75;5032214;28;20028;-77
2022/05/14 00:29:01;;;;;;;8.30;2.72;;;;;;;21.83;42.71;102091.91;5023255;28;20814;-76
2022/05/14 00:31:26;;;;;;;14.50;3.05;;;;;;;22.14;41.81;102092.53;5032867;28;20129;-77
2022/05/14 00:33:51;;;;;;;17.90;3.60;;;;;;;21.83;42.35;102089.25;5031697;28;20389;-77
2022/05/14 00:36:17;;;;;;;25.35;3.85;;;;;;;21.89;42.25;102092.59;5031829;28;20078;-77
2022/05/14 00:38:42;;;;;;;13.88;3.53;;;;;;;21.95;42.21;102087.03;5030200;28;20021;-77
2022/05/14 00:41:08;;;;;;;11.25;2.88;;;;;;;21.95;42.44;102092.34;5030463;28;20059;-76
2022/05/14 00:43:46;;;;;;;21.52;3.33;;;;;;;22.00;41.98;102087.72;5028143;28;20061;-77
2022/05/14 00:46:16;;;;;;;15.57;3.60;;;;;;;21.79;42.71;102095.59;5045354;28;20040;-77
2022/05/14 00:48:44;;;;;;;14.10;3.53;;;;;;;21.74;42.87;102086.91;5050007;28;20481;-76
2022/05/14 00:51:17;;;;;;;19.25;3.60;;;;;;;21.40;44.14;102085.44;5030291;28;20410;-77
2022/05/14 00:53:50;;;;;;;18.75;4.00;;;;;;;21.65;43.13;102081.94;5029601;28;20017;-77
2022/05/14 00:56:25;;;;;;;20.38;4.43;;;;;;;21.49;43.55;102082.47;5016001;28;20440;-77
2022/05/14 00:59:10;;;;;;;13.00;3.57;;;;;;;21.93;42.64;102079.13;5029264;28;20422;-76
2022/05/14 01:01:37;;;;;;;15.93;3.60;;;;;;;22.20;41.67;102082.50;5028338;28;20033;-76
2022/05/14 01:04:04;;;;;;;18.30;3.70;;;;;;;21.94;42.44;102087.97;5031217;28;20120;-76
2022/05/14 01:06:34;;;;;;;18.33;4.30;;;;;;;21.72;43.37;102090.56;5031808;28;20021;-76
2022/05/14 01:09:00;;;;;;;14.07;4.10;;;;;;;21.47;43.74;102080.78;5030846;28;20087;-76
2022/05/14 01:11:27;;;;;;;14.20;4.13;;;;;;;21.52;43.67;102087.69;5030864;28;20100;-76
2022/05/14 01:13:53;;;;;;;16.48;4.10;;;;;;;21.66;43.58;102086.34;5029915;28;20384;-77
2022/05/14 01:16:20;;;;;;;20.40;4.70;;;;;;;21.90;42.87;102089.00;5032516;28;20100;-76
2022/05/14 01:18:45;;;;;;;16.13;4.43;;;;;;;21.87;42.80;102084.66;5030642;28;20120;-77
2022/05/14 01:21:24;;;;;;;30.13;5.23;;;;;;;20.34;47.05;102097.81;5026309;28;20112;-76
2022/05/14 01:26:50;;;;;;;20.10;4.73;;;;;;;21.13;45.36;102088.19;5012564;28;20055;-77
2022/05/14 01:29:21;;;;;;;22.42;4.95;;;;;;;21.67;43.96;102093.41;5024018;28;20456;-77
2022/05/14 01:31:48;;;;;;;23.23;4.93;;;;;;;21.59;44.30;102095.47;5029785;28;20045;-76
2022/05/14 01:34:20;;;;;;;17.13;4.70;;;;;;;21.64;43.94;102093.53;5031770;28;20424;-77
2022/05/14 01:36:46;;;;;;;21.70;4.47;;;;;;;21.78;43.21;102088.53;5064145;28;20060;-77
2022/05/14 01:39:12;;;;;;;26.57;5.43;;;;;;;21.48;44.51;102096.69;5028118;28;20371;-77
2022/05/14 01:41:37;;;;;;;21.20;5.70;;;;;;;21.56;44.10;102106.22;5031055;28;20555;-77
2022/05/14 01:44:03;;;;;;;27.13;5.50;;;;;;;21.67;43.79;102101.38;5030425;28;20478;-77
2022/05/14 01:46:32;;;;;;;16.67;4.77;;;;;;;21.67;43.93;102090.75;5029972;28;20128;-76
2022/05/14 01:48:58;;;;;;;20.80;5.63;;;;;;;21.38;44.43;102097.06;5030581;28;20116;-76
2022/05/14 01:51:24;;;;;;;23.23;5.27;;;;;;;21.17;45.00;102111.06;5030218;28;20117;-77
2022/05/14 01:53:51;;;;;;;23.38;5.10;;;;;;;21.47;44.37;102096.75;5029977;28;20120;-77
2022/05/14 01:56:16;;;;;;;21.42;4.68;;;;;;;21.71;43.55;102105.66;5032062;28;20136;-76
2022/05/14 01:58:42;;;;;;;17.58;5.15;;;;;;;21.36;44.54;102099.78;5029061;28;20435;-78
2022/05/14 02:01:11;;;;;;;25.23;5.67;;;;;;;21.87;42.99;102100.63;5028934;28;20091;-77
2022/05/14 02:03:37;;;;;;;16.10;4.73;;;;;;;21.64;43.51;102109.47;5030487;28;20041;-77
2022/05/14 02:06:04;;;;;;;20.40;4.63;;;;;;;21.88;42.68;102105.03;5028731;28;20038;-77
2022/05/14 02:08:30;;;;;;;16.23;4.40;;;;;;;21.92;42.49;102111.13;5017511;28;20116;-77
2022/05/14 02:10:55;;;;;;;21.13;4.97;;;;;;;21.51;44.30;102104.56;5043355;28;20120;-76
2022/05/14 02:13:20;;;;;;;31.07;6.50;;;;;;;21.67;43.64;102102.25;5011398;28;20025;-77
2022/05/14 02:15:46;;;;;;;19.00;5.43;;;;;;;21.59;44.00;102109.63;5058718;28;20592;-77
2022/05/14 02:18:11;;;;;;;20.73;5.83;;;;;;;21.42;44.50;102104.91;5009542;28;20048;-77
2022/05/14 02:20:36;;;;;;;15.83;6.33;;;;;;;21.58;43.82;102107.03;5043014;28;20029;-77
2022/05/14 02:23:02;;;;;;;23.27;6.70;;;;;;;21.65;43.58;102124.50;5042887;28;20108;-77
2022/05/14 02:25:27;;;;;;;19.07;4.93;;;;;;;21.46;43.86;102117.16;5055014;28;20124;-77
2022/05/14 02:27:52;;;;;;;21.37;5.97;;;;;;;21.33;44.35;102114.06;5029495;28;20036;-75
2022/05/14 02:30:18;;;;;;;19.50;6.70;;;;;;;21.22;44.80;102112.72;5015806;28;20076;-76
2022/05/14 02:32:43;;;;;;;26.60;6.43;;;;;;;21.05;45.40;102108.84;5011785;28;20083;-77
2022/05/14 02:35:09;;;;;;;18.03;5.57;;;;;;;20.81;46.25;102111.41;5049583;28;20037;-77
2022/05/14 02:37:34;;;;;;;22.00;6.43;;;;;;;21.67;43.48;102109.38;5029496;28;20037;-77
2022/05/14 02:40:00;;;;;;;26.33;6.60;;;;;;;21.57;43.74;102123.91;5012809;28;20124;-78
2022/05/14 02:42:25;;;;;;;24.53;5.90;;;;;;;20.96;45.17;102119.78;5030243;28;20033;-77
2022/05/14 02:44:50;;;;;;;20.03;7.10;;;;;;;21.40;44.08;102114.69;5029088;28;20033;-77
2022/05/14 02:47:17;;;;;;;22.07;6.00;;;;;;;21.30;43.93;102118.63;5028860;28;20103;-78
2022/05/14 02:49:42;;;;;;;14.70;4.93;;;;;;;21.33;43.93;102118.50;5028486;28;20148;-77
2022/05/14 02:52:08;;;;;;;21.60;5.80;;;;;;;21.39;43.86;102120.97;5030020;28;20116;-78
2022/05/14 02:54:34;;;;;;;19.23;7.33;;;;;;;20.94;44.90;102132.25;5012417;28;20084;-77
2022/05/14 02:56:59;;;;;;;23.70;6.23;;;;;;;21.01;44.91;102131.13;5059790;28;20033;-77
2022/05/14 02:59:24;;;;;;;27.50;6.90;;;;;;;20.81;46.07;102134.44;5029758;28;20029;-77
2022/05/14 03:01:50;;;;;;;20.87;7.03;;;;;;;21.00;45.19;102134.69;5029145;28;20037;-76
2022/05/14 03:04:22;;;;;;;21.17;6.50;;;;;;;21.06;45.34;102142.47;5030731;28;20460;-77
2022/05/14 03:06:49;;;;;;;20.85;6.38;;;;;;;20.92;45.53;102136.75;5043143;28;20042;-77
2022/05/14 03:09:15;;;;;;;20.13;7.60;;;;;;;21.00;45.29;102132.91;5028322;28;20033;-77
2022/05/14 03:11:40;;;;;;;23.93;7.90;;;;;;;20.37;47.05;102134.88;5027152;28;20477;-76
2022/05/14 03:14:06;;;;;;;22.17;7.77;;;;;;;20.79;46.91;102131.81;5029559;28;20025;-76
2022/05/14 03:16:31;;;;;;;23.30;7.37;;;;;;;20.95;46.10;102129.53;5028190;28;20037;-76
2022/05/14 03:18:56;;;;;;;25.87;7.70;;;;;;;21.28;44.82;102131.09;5028528;28;20120;-77
2022/05/14 03:21:22;;;;;;;20.93;8.20;;;;;;;21.21;44.96;102121.59;5030273;28;20082;-78
2022/05/14 03:23:47;;;;;;;28.07;8.47;;;;;;;20.92;45.77;102126.09;5014016;28;20029;-77
2022/05/14 03:26:12;;;;;;;32.37;8.87;;;;;;;20.73;46.66;102124.06;5027863;28;20037;-77
2022/05/14 03:28:38;;;;;;;24.97;7.60;;;;;;;20.88;46.44;102119.16;5029945;28;20028;-78
2022/05/14 03:31:03;;;;;;;24.63;7.80;;;;;;;21.08;45.23;102126.47;5027892;28;20033;-77
2022/05/14 03:33:31;;;;;;;20.57;7.17;;;;;;;21.26;44.83;102120.50;5029421;28;20014;-77
2022/05/14 03:35:56;;;;;;;35.23;10.50;;;;;;;21.30;44.79;102121.28;5027708;28;20056;-77
2022/05/14 03:38:21;;;;;;;27.57;7.57;;;;;;;21.14;44.77;102128.91;5045514;28;20123;-77
2022/05/14 03:40:47;;;;;;;23.40;6.97;;;;;;;21.23;44.13;102136.56;5028674;28;20025;-77
2022/05/14 03:43:12;;;;;;;23.73;7.80;;;;;;;20.99;44.70;102120.56;5009586;28;20015;-77
2022/05/14 03:45:41;;;;;;;27.23;8.77;;;;;;;20.91;45.17;102114.63;5014153;28;20532;-77
2022/05/14 03:48:07;;;;;;;25.17;8.87;;;;;;;20.95;44.87;102115.38;5028331;28;20489;-77
2022/05/14 03:50:32;;;;;;;32.17;8.67;;;;;;;20.93;45.37;102117.22;5032351;28;20036;-77
2022/05/14 03:52:58;;;;;;;29.13;8.80;;;;;;;20.98;44.94;102117.94;5028215;28;20044;-77
2022/05/14 03:55:24;;;;;;;27.60;8.30;;;;;;;20.91;45.26;102119.03;5028029;28;20129;-77
2022/05/14 03:57:49;;;;;;;24.73;8.20;;;;;;;21.19;44.47;102122.50;5039434;28;20552;-77
2022/05/14 04:00:16;;;;;;;24.47;8.87;;;;;;;21.00;45.03;102121.41;5028901;28;20083;-77
2022/05/14 04:02:42;;;;;;;28.80;8.60;;;;;;;21.27;44.24;102116.09;5027935;28;20063;-77
2022/05/14 04:05:08;;;;;;;19.03;7.63;;;;;;;21.32;44.36;102114.09;5028428;28;20116;-77
2022/05/14 04:07:33;;;;;;;35.17;8.47;;;;;;;20.86;46.02;102115.69;5028073;28;20026;-77
2022/05/14 04:09:58;;;;;;;25.67;8.30;;;;;;;20.97;45.48;102118.84;5048611;28;20470;-77
2022/05/14 04:12:27;;;;;;;26.00;8.67;;;;;;;21.26;44.48;102135.59;5028337;28;20429;-77
2022/05/14 04:14:52;;;;;;;24.80;7.93;;;;;;;21.28;44.64;102133.75;5028294;28;20366;-77
2022/05/14 04:17:18;;;;;;;19.70;8.40;;;;;;;21.48;44.00;102136.56;5027884;28;20059;-77
2022/05/14 04:19:43;;;;;;;31.60;7.83;;;;;;;21.70;43.29;102135.84;5029408;28;20043;-77
2022/05/14 04:22:09;;;;;;;25.73;7.03;;;;;;;21.68;42.79;102129.72;5059417;28;20426;-77
2022/05/14 04:24:34;;;;;;;22.20;8.23;;;;;;;21.53;43.42;102133.81;5028101;28;20037;-77
2022/05/14 04:26:59;;;;;;;31.67;9.63;;;;;;;21.47;43.69;102139.28;5028596;28;20036;-77
2022/05/14 04:29:25;;;;;;;27.87;8.10;;;;;;;21.46;44.16;102143.75;5063471;28;20021;-77
2022/05/14 04:31:50;;;;;;;23.57;8.23;;;;;;;21.73;43.20;102145.50;5021955;28;20139;-77
2022/05/14 04:34:18;;;;;;;19.43;7.50;;;;;;;21.51;44.27;102141.81;5013333;28;20028;-77
2022/05/14 04:36:43;;;;;;;21.47;7.27;;;;;;;21.24;45.18;102148.97;5056701;28;20401;-77
2022/05/14 04:39:08;;;;;;;23.60;8.00;;;;;;;21.55;44.03;102153.22;5011698;28;20026;-77
2022/05/14 04:41:34;;;;;;;26.97;7.07;;;;;;;21.70;44.52;102151.81;5051216;28;20446;-77
2022/05/14 04:44:00;;;;;;;19.03;7.13;;;;;;;21.92;44.01;102151.03;5033058;28;20034;-77
2022/05/14 04:46:26;;;;;;;26.57;7.67;;;;;;;21.79;44.56;102156.81;5029346;28;20653;-77
2022/05/14 04:48:52;;;;;;;23.47;5.93;;;;;;;22.27;43.62;102148.81;5030859;28;20056;-76
2022/05/14 04:51:17;;;;;;;22.53;6.87;;;;;;;22.57;43.38;102148.59;5030995;28;20116;-76
2022/05/14 04:53:42;;;;;;;21.40;6.90;;;;;;;22.76;43.41;102154.91;5064637;28;20024;-76
2022/05/14 04:56:08;;;;;;;22.33;6.80;;;;;;;23.02;42.79;102150.31;5060833;28;20025;-77
2022/05/14 04:58:33;;;;;;;23.13;6.55;;;;;;;22.36;43.53;102156.50;5032488;28;20547;-77
2022/05/14 05:00:59;;;;;;;20.80;5.90;;;;;;;22.36;44.10;102161.81;5029494;28;20029;-77
2022/05/14 05:03:24;;;;;;;19.80;6.50;;;;;;;22.28;44.26;102162.06;5062966;28;20037;-76
2022/05/14 05:05:53;;;;;;;26.50;7.35;;;;;;;22.70;43.09;102161.34;5033688;28;20026;-76
2022/05/14 05:08:19;;;;;;;22.40;6.18;;;;;;;22.98;43.10;102160.22;5035190;28;20071;-77
2022/05/14 05:10:44;;;;;;;17.88;5.75;;;;;;;23.05;43.34;102155.50;5031170;28;20029;-77
2022/05/14 05:13:16;;;;;;;16.33;5.00;;;;;;;23.16;42.38;102150.63;5047579;28;20412;-77
2022/05/14 05:15:42;;;;;;;18.48;5.18;;;;;;;23.23;42.37;102169.88;5029238;28;20029;-77
2022/05/14 05:18:09;;;;;;;13.85;4.95;;;;;;;23.31;42.32;102167.75;5032536;28;20448;-77
2022/05/14 05:20:35;;;;;;;21.95;5.63;;;;;;;23.53;42.17;102169.50;5030169;28;20117;-77
2022/05/14 05:23:02;;;;;;;13.88;4.60;;;;;;;23.82;41.90;102173.56;5031492;28;20464;-77
2022/05/14 05:25:27;;;;;;;21.50;6.00;;;;;;;23.72;42.28;102178.44;5030058;28;20100;-77
2022/05/14 05:27:53;;;;;;;19.77;5.32;;;;;;;23.93;41.27;102177.56;5030409;28;20027;-77
2022/05/14 05:30:19;;;;;;;19.48;5.57;;;;;;;23.85;41.25;102177.88;5030751;28;20548;-76
2022/05/14 05:32:44;;;;;;;15.98;5.35;;;;;;;23.80;41.53;102178.09;5030054;28;20079;-76
2022/05/14 05:35:09;;;;;;;18.73;5.07;;;;;;;24.38;41.04;102187.94;5029850;28;20036;-76
2022/05/14 05:37:35;;;;;;;15.15;5.28;;;;;;;23.50;41.84;102183.84;5029144;28;20025;-76
2022/05/14 05:40:00;;;;;;;23.35;5.97;;;;;;;22.74;42.75;102186.09;5030433;28;20083;-77
2022/05/14 05:42:26;;;;;;;15.43;4.05;;;;;;;23.80;41.18;102185.25;5062576;28;20167;-76
2022/05/14 05:44:51;;;;;;;17.83;4.45;;;;;;;24.33;39.94;102197.09;5033767;28;20064;-76
2022/05/14 05:47:17;;;;;;;16.55;4.00;;;;;;;23.70;41.37;102195.47;5031508;28;20029;-76
2022/05/14 05:49:43;;;;;;;13.55;4.10;;;;;;;24.43;40.72;102198.41;5030677;28;20478;-76
2022/05/14 05:52:09;;;;;;;18.33;4.30;;;;;;;24.15;40.30;102197.03;5029670;28;20013;-76
2022/05/14 05:57:18;;;;;;;16.48;4.03;;;;;;;23.09;41.60;102199.78;5032180;28;20124;-76
2022/05/14 05:59:43;;;;;;;13.38;3.35;;;;;;;23.26;42.22;102192.91;5030552;28;20104;-76
2022/05/14 06:02:08;;;;;;;14.05;3.67;;;;;;;23.54;40.60;102190.78;5029884;28;20607;-76
2022/05/14 06:04:38;;;;;;;16.10;3.67;;;;;;;23.12;41.81;102205.03;5023343;28;20075;-76
2022/05/14 06:07:03;;;;;;;11.30;3.30;;;;;;;23.25;41.33;102194.72;5029369;28;20072;-76
2022/05/14 06:09:32;;;;;;;13.52;3.83;;;;;;;23.09;41.95;102194.44;5029648;28;20045;-76
2022/05/14 06:11:58;;;;;;;14.48;3.35;;;;;;;23.10;41.58;102201.50;5029804;28;20416;-76
2022/05/14 06:14:25;;;;;;;12.20;3.75;;;;;;;23.55;40.43;102192.53;5031275;28;20039;-76
2022/05/14 06:16:51;;;;;;;15.40;4.80;;;;;;;24.27;39.61;102206.28;5029524;28;20040;-77
2022/05/14 06:19:16;;;;;;;12.18;4.93;;;;;;;24.75;38.33;102217.41;5030157;28;20025;-77
2022/05/14 06:21:41;;;;;;;11.43;3.70;;;;;;;23.59;39.81;102208.38;5031067;28;20512;-76
2022/05/14 06:24:08;;;;;;;14.25;3.90;;;;;;;23.86;39.85;102201.88;5029944;28;20025;-77
2022/05/14 06:26:33;;;;;;;10.27;3.63;;;;;;;23.93;39.76;102207.81;5029486;28;20087;-76
2022/05/14 06:28:59;;;;;;;13.93;4.88;;;;;;;24.05;39.87;102211.72;5020384;28;20018;-76
2022/05/14 06:31:25;;;;;;;14.23;4.32;;;;;;;24.72;39.29;102217.56;5043906;28;20017;-76
2022/05/14 06:33:50;;;;;;;12.90;4.05;;;;;;;26.00;37.49;102210.25;5048619;28;20025;-76
2022/05/14 06:36:16;;;;;;;12.57;4.05;;;;;;;26.29;35.54;102214.06;5030246;28;20029;-76
2022/05/14 06:38:42;;;;;;;13.70;3.47;;;;;;;27.02;34.78;102218.91;5026050;28;20029;-76
2022/05/14 06:41:11;;;;;;;11.65;3.75;;;;;;;28.58;31.98;102217.50;5029320;28;20507;-75
2022/05/14 06:43:37;;;;;;;7.75;3.47;;;;;;;29.47;30.73;102209.91;5046163;28;20065;-76
2022/05/14 06:46:03;;;;;;;9.27;3.78;;;;;;;29.86;29.52;102216.19;5060101;28;20037;-76
2022/05/14 06:48:32;;;;;;;9.68;3.53;;;;;;;30.82;28.23;102225.47;5027975;28;20372;-76
2022/05/14 06:51:08;;;;;;;9.52;3.30;;;;;;;31.53;27.90;102224.66;5029460;28;20029;-76
2022/05/14 06:53:39;;;;;;;12.23;3.40;;;;;;;32.76;26.25;102222.97;5029499;28;20026;-76
2022/05/14 06:56:07;;;;;;;8.80;2.85;;;;;;;33.30;25.02;102218.47;5045042;28;20079;-76
2022/05/14 06:58:37;;;;;;;11.13;3.25;;;;;;;31.65;26.56;102222.88;5029130;28;20025;-76
2022/05/14 07:01:03;;;;;;;19.95;3.65;;;;;;;32.50;25.40;102219.69;5028220;28;20108;-76
2022/05/14 07:09:00;;;;;;;9.25;2.95;;;;;;;32.79;24.47;102236.25;5029093;28;20385;-76
2022/05/14 07:11:25;;;;;;;12.05;3.63;;;;;;;34.15;24.34;102230.06;5022999;28;20037;-75
2022/05/14 07:13:51;;;;;;;11.38;2.80;;;;;;;35.06;22.24;102233.72;5028202;28;20036;-75
2022/05/14 07:16:17;;;;;;;10.77;2.72;;;;;;;34.10;23.25;102234.19;5029230;28;20029;-75
2022/05/14 07:18:43;;;;;;;9.15;2.80;;;;;;;32.78;24.39;102239.06;5028243;28;20116;-75
2022/05/14 07:21:09;;;;;;;11.68;3.45;;;;;;;33.08;25.04;102245.63;5028857;28;20484;-75
2022/05/14 07:23:34;;;;;;;11.23;3.03;;;;;;;32.65;25.48;102253.59;5027823;28;20037;-76
2022/05/14 07:26:07;;;;;;;9.07;3.03;;;;;;;31.61;25.42;102250.16;5025876;28;20584;-76
2022/05/14 07:28:34;;;;;;;12.32;3.28;;;;;;;32.72;25.95;102250.44;5019692;28;20359;-76
2022/05/14 07:31:01;;;;;;;12.98;4.15;;;;;;;34.18;23.14;102245.19;5016282;28;20129;-75
2022/05/14 07:33:27;;;;;;;18.63;4.60;;;;;;;35.47;21.94;102248.84;5028297;28;20039;-75
2022/05/14 07:35:53;;;;;;;8.95;3.30;;;;;;;36.04;22.26;102236.25;5027557;28;20117;-75
2022/05/14 07:38:18;;;;;;;15.02;3.25;;;;;;;35.70;22.14;102247.66;5027676;28;20544;-75
2022/05/14 07:40:44;;;;;;;10.52;3.25;;;;;;;34.89;23.62;102246.16;5059565;28;20032;-75
2022/05/14 07:43:22;;;;;;;18.15;3.60;;;;;;;35.09;21.54;102238.84;5029332;28;20033;-75
2022/05/14 07:45:52;;;;;;;9.55;3.40;;;;;;;35.37;23.25;102230.88;5026820;28;20044;-75
2022/05/14 07:48:24;;;;;;;14.90;3.85;;;;;;;36.63;21.80;102239.50;5027314;28;20029;-75
2022/05/14 07:50:50;;;;;;;13.43;3.50;;;;;;;36.79;19.95;102249.72;5027705;28;20289;-75
2022/05/14 07:53:17;;;;;;;13.93;3.47;;;;;;;37.09;19.23;102250.38;5028460;28;20022;-74
2022/05/14 07:55:43;;;;;;;14.15;3.55;;;;;;;37.32;20.38;102254.34;5026479;28;20769;-75
2022/05/14 07:58:10;;;;;;;8.27;3.10;;;;;;;37.41;18.51;102254.41;5026009;28;20029;-75
2022/05/14 08:00:36;;;;;;;8.60;2.92;;;;;;;38.41;20.18;102251.22;5028076;28;20026;-74
2022/05/14 08:03:02;;;;;;;15.68;3.70;;;;;;;38.23;18.15;102263.13;5028300;28;20040;-75
2022/05/14 08:05:27;;;;;;;12.95;3.38;;;;;;;38.53;18.53;102266.28;5030653;28;20515;-74
2022/05/14 08:07:52;;;;;;;8.38;2.80;;;;;;;34.81;18.86;102263.13;5029133;28;20525;-75
2022/05/14 08:10:18;;;;;;;11.30;2.47;;;;;;;32.08;20.18;102262.72;5008463;28;20393;-75
2022/05/14 08:12:47;;;;;;;9.65;3.35;;;;;;;34.35;18.74;102261.84;5031242;28;20033;-74
2022/05/14 08:15:14;;;;;;;11.95;3.15;;;;;;;34.43;20.42;102270.16;5050006;28;20036;-75
2022/05/14 08:17:40;;;;;;;12.90;2.85;;;;;;;34.88;18.66;102260.72;5031475;28;20028;-75
2022/05/14 08:20:06;;;;;;;11.07;2.75;;;;;;;36.63;17.65;102255.84;5031549;28;20025;-74
2022/05/14 08:25:15;;;;;;;17.27;2.97;;;;;;;35.27;19.74;102252.56;5031041;28;20688;-75
2022/05/14 08:27:47;;;;;;;10.00;2.45;;;;;;;32.56;21.91;102256.19;5032988;28;20030;-74
2022/05/14 08:30:25;;;;;;;14.82;3.30;;;;;;;32.42;21.80;102255.47;5031791;28;20029;-74
2022/05/14 08:32:51;;;;;;;11.07;2.78;;;;;;;32.27;21.26;102263.00;5063829;28;20029;-74
2022/05/14 08:35:17;;;;;;;10.02;3.78;;;;;;;36.12;18.07;102260.84;5026503;28;20409;-74
2022/05/14 08:37:43;;;;;;;9.20;3.33;;;;;;;37.32;18.42;102267.97;5027126;28;20045;-75
2022/05/14 08:40:22;;;;;;;12.60;2.67;;;;;;;38.73;15.90;102260.53;5012390;28;20026;-75
2022/05/14 08:42:51;;;;;;;14.75;3.38;;;;;;;38.84;16.12;102257.47;5027804;28;20050;-74
2022/05/14 08:45:20;;;;;;;8.45;2.08;;;;;;;38.61;15.11;102258.13;5028302;28;20095;-75
2022/05/14 08:47:55;;;;;;;11.82;2.15;;;;;;;39.27;14.90;102257.34;5010605;28;20041;-75
2022/05/14 08:50:23;;;;;;;9.50;2.55;;;;;;;40.12;16.61;102266.94;5064684;28;20025;-74
2022/05/14 08:52:54;;;;;;;10.02;2.33;;;;;;;41.61;13.21;102261.31;5031201;28;20040;-75
2022/05/14 08:55:20;;;;;;;12.98;2.85;;;;;;;43.07;11.46;102257.84;5014611;28;20040;-75
2022/05/14 08:57:55;;;;;;;8.00;2.25;;;;;;;41.49;12.39;102258.16;5055721;28;20041;-75
2022/05/14 09:00:22;;;;;;;8.82;2.47;;;;;;;41.29;13.95;102258.69;5030841;28;20040;-74
2022/05/14 09:02:51;;;;;;;9.95;2.78;;;;;;;37.49;14.80;102265.38;5038167;28;20028;-74
2022/05/14 09:05:19;;;;;;;15.50;3.15;;;;;;;37.54;15.81;102260.31;5031493;28;20485;-74
2022/05/14 09:07:45;;;;;;;15.95;3.05;;;;;;;38.00;16.44;102255.50;5033106;28;20143;-75
2022/05/14 09:10:33;;;;;;;9.20;3.40;;;;;;;38.76;16.33;102254.75;5063339;28;20128;-74
2022/05/14 09:13:00;;;;;;;11.63;2.80;;;;;;;41.06;15.24;102257.88;5030405;28;20026;-74
2022/05/14 09:15:28;;;;;;;8.93;2.90;;;;;;;39.54;15.11;102250.66;5028922;28;20104;-75
2022/05/14 09:18:09;;;;;;;11.70;2.45;;;;;;;36.42;16.37;102267.03;5030000;28;20025;-74
2022/05/14 09:21:05;;;;;;;9.70;2.65;;;;;;;37.50;16.32;102256.19;5030743;28;20029;-74
2022/05/14 09:23:42;;;;;;;12.57;2.78;;;;;;;38.78;15.88;102255.44;5009512;28;20121;-74
2022/05/14 09:26:35;;;;;;;7.60;2.78;;;;;;;40.37;14.67;102259.50;5029482;28;20477;-74
2022/05/14 09:29:26;;;;;;;9.65;2.38;;;;;;;40.09;14.91;102264.56;5028364;28;20025;-74
2022/05/14 09:32:05;;;;;;;10.68;2.97;;;;;;;40.22;16.14;102251.19;5031970;28;20029;-74
2022/05/14 09:34:32;;;;;;;11.13;3.03;;;;;;;39.77;14.60;102255.44;5029637;28;20025;-74
2022/05/14 09:37:12;;;;;;;13.43;2.75;;;;;;;37.85;16.02;102262.56;5030897;28;20091;-74
2022/05/14 09:39:39;;;;;;;10.30;2.58;;;;;;;39.66;15.01;102262.97;5029624;28;20037;-74
2022/05/14 09:42:06;;;;;;;11.68;2.72;;;;;;;38.48;15.52;102263.19;5063602;28;20029;-74
2022/05/14 09:44:48;;;;;;;12.32;3.15;;;;;;;37.76;15.93;102269.00;5023876;28;20034;-74
2022/05/14 09:47:34;;;;;;;15.30;3.80;;;;;;;39.21;15.29;102253.44;5028540;28;20477;-73
2022/05/14 09:50:03;;;;;;;12.43;2.88;;;;;;;38.80;16.32;102253.38;5028457;28;20393;-74
2022/05/14 09:52:32;;;;;;;10.07;2.28;;;;;;;40.15;15.18;102250.19;5031778;28;20377;-73
2022/05/14 09:55:01;;;;;;;14.65;2.85;;;;;;;40.05;17.10;102260.47;5029615;28;20492;-73
2022/05/14 09:57:42;;;;;;;9.52;2.65;;;;;;;40.82;13.87;102251.50;5028380;28;20054;-74
2022/05/14 10:00:13;;;;;;;10.07;2.80;;;;;;;42.97;13.25;102256.22;5031107;28;20029;-74
2022/05/14 10:02:44;;;;;;;17.00;3.75;;;;;;;41.61;13.26;102262.16;5030286;28;20374;-74
2022/05/14 10:05:34;;;;;;;11.15;2.55;;;;;;;41.86;13.71;102253.66;5028977;28;20411;-74
2022/05/14 10:08:22;;;;;;;7.50;2.38;;;;;;;41.00;13.18;102257.56;5060792;28;20497;-73
2022/05/14 10:11:13;;;;;;;10.70;2.92;;;;;;;39.45;15.54;102248.97;5028199;28;20088;-75
2022/05/14 10:14:14;;;;;;;11.40;2.92;;;;;;;39.08;15.27;102251.19;5018096;28;20018;-75
2022/05/14 10:17:06;;;;;;;13.80;3.38;;;;;;;36.82;18.10;102257.63;5034822;28;20095;-76
2022/05/14 10:19:43;;;;;;;10.63;2.60;;;;;;;37.17;17.98;102253.19;5014699;28;20046;-75
2022/05/14 10:22:21;;;;;;;10.95;3.05;;;;;;;35.61;18.54;102250.25;5056481;28;20136;-75
2022/05/14 10:27:53;;;;;;;11.82;2.85;;;;;;;36.09;18.45;102252.97;5029453;28;20152;-75
2022/05/14 10:30:25;;;;;;;12.80;3.25;;;;;;;35.75;18.64;102256.22;5028541;28;20025;-75
2022/05/14 10:32:59;;;;;;;19.02;3.28;;;;;;;36.44;18.91;102256.84;5031030;28;20040;-75
2022/05/14 10:35:27;;;;;;;9.77;2.42;;;;;;;35.06;19.22;102250.00;5025171;28;20497;-75
2022/05/14 10:38:08;;;;;;;8.25;2.45;;;;;;;38.09;16.88;102247.34;5028648;28;20070;-76
2022/05/14 10:40:38;;;;;;;11.02;2.75;;;;;;;38.18;16.46;102246.34;5027852;28;20112;-75
2022/05/14 10:43:25;;;;;;;10.70;3.08;;;;;;;39.61;14.59;102259.03;5028054;28;20061;-76
2022/05/14 10:45:54;;;;;;;10.73;2.97;;;;;;;40.69;15.42;102247.47;5028594;28;20044;-76
2022/05/14 10:48:32;;;;;;;12.13;3.08;;;;;;;40.14;15.19;102257.53;5029152;28;20033;-76
2022/05/14 10:51:00;;;;;;;12.32;3.20;;;;;;;37.68;17.48;102262.44;5021800;28;20060;-75
2022/05/14 10:53:25;;;;;;;12.43;2.95;;;;;;;40.29;15.29;102257.63;5024508;28;20030;-75
2022/05/14 10:56:13;;;;;;;11.70;3.10;;;;;;;39.46;16.25;102261.59;5030374;28;20033;-75
2022/05/14 10:59:05;;;;;;;11.27;2.42;;;;;;;37.86;17.61;102250.63;5028985;28;20434;-75
2022/05/14 11:01:30;;;;;;;;;;;;;;;38.41;16.58;102263.00;5027722;28;20504;-75
2022/05/14 11:03:57;;;;;;;13.82;3.35;;;;;;;37.58;16.91;102269.88;5055077;28;19956;-75
2022/05/14 11:06:33;;;;;;;12.82;3.03;;;;;;;36.95;17.81;102268.97;5032590;28;20025;-75
2022/05/14 11:08:59;;;;;;;8.38;2.70;;;;;;;34.37;19.56;102265.31;5027740;28;20028;-75
2022/05/14 11:11:31;;;;;;;9.60;2.95;;;;;;;34.60;19.67;102263.22;5020919;28;20057;-75
2022/05/14 11:14:07;;;;;;;12.43;3.40;;;;;;;36.20;18.69;102255.50;5028577;28;20029;-75
2022/05/14 11:16:43;;;;;;;13.35;2.50;;;;;;;38.81;16.17;102260.56;5027730;28;20124;-76
2022/05/14 11:19:11;;;;;;;12.30;3.40;;;;;;;38.08;17.12;102268.31;5028697;28;20507;-75
2022/05/14 11:21:45;;;;;;;12.55;2.90;;;;;;;39.52;15.88;102266.41;5017562;28;20052;-75
2022/05/14 11:24:14;;;;;;;13.70;2.78;;;;;;;39.00;16.10;102268.44;5028654;28;20052;-75
2022/05/14 11:26:46;;;;;;;12.05;3.05;;;;;;;37.90;16.31;102260.19;5027866;28;20053;-76
2022/05/14 11:29:17;;;;;;;8.48;2.85;;;;;;;36.84;18.13;102266.50;5011103;28;20045;-75
2022/05/14 11:31:54;;;;;;;13.50;3.00;;;;;;;37.29;17.70;102267.44;5028469;28;20032;-76
2022/05/14 11:34:23;;;;;;;14.60;3.20;;;;;;;34.52;19.76;102258.47;5028607;28;20064;-75
2022/05/14 11:36:51;;;;;;;12.18;3.15;;;;;;;33.40;21.25;102269.13;5026789;28;20432;-75
2022/05/14 11:39:20;;;;;;;10.23;3.67;;;;;;;35.06;20.60;102266.31;5029774;28;20087;-75
2022/05/14 11:41:45;;;;;;;11.00;3.30;;;;;;;35.10;19.87;102268.56;5032817;28;20030;-76
2022/05/14 11:44:11;;;;;;;8.10;2.70;;;;;;;35.26;19.42;102265.28;5033663;28;20032;-75
2022/05/14 11:46:43;;;;;;;8.80;2.70;;;;;;;33.16;21.26;102270.22;5033708;28;20053;-75